sensor_id;sensor_type;location;lat;lon;timestamp;pressure;altitude;pressure_sealevel;temperature;humidity
66560;BME280;53413;49.878;8.142;2023-02-11T00:01:24;102002.53;;;1.76;100.00
66560;BME280;53413;49.878;8.142;2023-02-11T00:03:50;101999.97;;;1.76;100.00
66560;BME280;53413;49.878;8.142;2023-02-11T00:06:15;102004.41;;;1.80;100.00
66560;BME280;53413;49.878;8.142;2023-02-11T00:08:41;101994.19;;;1.85;100.00
66560;BME280;53413;49.878;8.142;2023-02-11T00:11:12;101995.16;;;1.89;100.00
66560;BME280;53413;49.878;8.142;2023-02-11T00:13:39;102008.09;;;1.89;100.00
66560;BME280;53413;49.878;8.142;2023-02-11T00:16:09;101999.59;;;1.93;100.00
66560;BME280;53413;49.878;8.142;2023-02-11T00:18:34;102003.16;;;1.96;100.00
66560;BME280;53413;49.878;8.142;2023-02-11T00:21:14;101998.94;;;2.00;100.00
66560;BME280;53413;49.878;8.142;2023-02-11T00:23:40;102001.59;;;2.02;100.00
66560;BME280;53413;49.878;8.142;2023-02-11T00:26:14;101996.44;;;2.03;100.00
66560;BME280;53413;49.878;8.142;2023-02-11T00:28:40;101992.19;;;2.05;100.00
66560;BME280;53413;49.878;8.142;2023-02-11T00:31:05;101991.28;;;2.03;100.00
66560;BME280;53413;49.878;8.142;2023-02-11T00:33:31;101989.72;;;2.08;100.00
66560;BME280;53413;49.878;8.142;2023-02-11T00:35:56;101982.81;;;2.09;100.00
66560;BME280;53413;49.878;8.142;2023-02-11T00:38:21;101978.53;;;2.09;100.00
66560;BME280;53413;49.878;8.142;2023-02-11T00:40:47;101986.44;;;2.14;100.00
66560;BME280;53413;49.878;8.142;2023-02-11T00:43:12;101983.88;;;2.15;100.00
66560;BME280;53413;49.878;8.142;2023-02-11T00:45:38;101980.31;;;2.12;100.00
66560;BME280;53413;49.878;8.142;2023-02-11T00:48:03;101974.34;;;2.14;100.00
66560;BME280;53413;49.878;8.142;2023-02-11T00:50:28;101976.13;;;2.17;100.00
66560;BME280;53413;49.878;8.142;2023-02-11T00:52:54;101968.53;;;2.22;100.00
66560;BME280;53413;49.878;8.142;2023-02-11T00:55:19;101974.66;;;2.25;100.00
66560;BME280;53413;49.878;8.142;2023-02-11T00:57:44;101968.69;;;2.28;100.00
66560;BME280;53413;49.878;8.142;2023-02-11T01:00:11;101972.22;;;2.30;100.00
66560;BME280;53413;49.878;8.142;2023-02-11T01:02:37;101973.16;;;2.34;100.00
66560;BME280;53413;49.878;8.142;2023-02-11T01:05:03;101968.91;;;2.36;100.00
66560;BME280;53413;49.878;8.142;2023-02-11T01:07:29;101958.59;;;2.37;100.00
66560;BME280;53413;49.878;8.142;2023-02-11T01:09:54;101964.69;;;2.39;100.00
66560;BME280;53413;49.878;8.142;2023-02-11T01:12:20;101961.28;;;2.42;100.00
66560;BME280;53413;49.878;8.142;2023-02-11T01:14:46;101961.28;;;2.40;100.00
66560;BME280;53413;49.878;8.142;2023-02-11T01:17:11;101954.44;;;2.42;100.00
66560;BME280;53413;49.878;8.142;2023-02-11T01:19:37;101957.00;;;2.42;100.00
66560;BME280;53413;49.878;8.142;2023-02-11T01:22:03;101957.88;;;2.43;100.00
66560;BME280;53413;49.878;8.142;2023-02-11T01:24:29;101956.13;;;2.42;100.00
66560;BME280;53413;49.878;8.142;2023-02-11T01:26:54;101953.63;;;2.45;100.00
66560;BME280;53413;49.878;8.142;2023-02-11T01:29:19;101952.78;;;2.46;100.00
66560;BME280;53413;49.878;8.142;2023-02-11T01:31:45;101947.66;;;2.47;100.00
66560;BME280;53413;49.878;8.142;2023-02-11T01:34:10;101950.41;;;2.54;100.00
66560;BME280;53413;49.878;8.142;2023-02-11T01:36:36;101941.03;;;2.59;100.00
66560;BME280;53413;49.878;8.142;2023-02-11T01:39:01;101940.22;;;2.60;100.00
66560;BME280;53413;49.878;8.142;2023-02-11T01:41:26;101940.22;;;2.60;100.00
66560;BME280;53413;49.878;8.142;2023-02-11T01:43:52;101944.53;;;2.61;100.00
66560;BME280;53413;49.878;8.142;2023-02-11T01:46:33;101939.38;;;2.61;100.00
66560;BME280;53413;49.878;8.142;2023-02-11T01:49:10;101927.25;;;2.58;100.00
66560;BME280;53413;49.878;8.142;2023-02-11T01:51:47;101930.78;;;2.62;100.00
66560;BME280;53413;49.878;8.142;2023-02-11T01:54:17;101929.94;;;2.63;100.00
66560;BME280;53413;49.878;8.142;2023-02-11T01:57:03;101917.88;;;2.64;100.00
66560;BME280;53413;49.878;8.142;2023-02-11T02:08:08;101912.75;;;2.65;100.00
66560;BME280;53413;49.878;8.142;2023-02-11T02:10:37;101905.81;;;2.64;100.00
66560;BME280;53413;49.878;8.142;2023-02-11T02:13:04;101908.47;;;2.67;100.00
66560;BME280;53413;49.878;8.142;2023-02-11T02:15:32;101907.59;;;2.67;100.00
66560;BME280;53413;49.878;8.142;2023-02-11T02:18:02;101912.81;;;2.68;100.00
66560;BME280;53413;49.878;8.142;2023-02-11T02:34:18;101880.53;;;2.89;100.00
66560;BME280;53413;49.878;8.142;2023-02-11T02:39:23;101869.31;;;2.88;100.00
66560;BME280;53413;49.878;8.142;2023-02-11T02:41:51;101878.84;;;2.91;100.00
66560;BME280;53413;49.878;8.142;2023-02-11T02:44:19;101883.19;;;2.92;100.00
66560;BME280;53413;49.878;8.142;2023-02-11T02:46:44;101880.59;;;2.92;100.00
66560;BME280;53413;49.878;8.142;2023-02-11T02:49:14;101890.13;;;2.93;100.00
66560;BME280;53413;49.878;8.142;2023-02-11T02:57:08;101898.84;;;2.98;100.00
66560;BME280;53413;49.878;8.142;2023-02-11T03:02:53;101911.97;;;3.04;100.00
66560;BME280;53413;49.878;8.142;2023-02-11T03:05:29;101910.28;;;3.06;100.00
66560;BME280;53413;49.878;8.142;2023-02-11T03:08:03;101909.47;;;3.09;100.00
66560;BME280;53413;49.878;8.142;2023-02-11T03:10:35;101910.41;;;3.11;100.00
66560;BME280;53413;49.878;8.142;2023-02-11T03:13:02;101900.88;;;3.10;100.00
66560;BME280;53413;49.878;8.142;2023-02-11T03:15:31;101881.13;;;3.15;100.00
66560;BME280;53413;49.878;8.142;2023-02-11T03:18:00;101876.91;;;3.20;100.00
66560;BME280;53413;49.878;8.142;2023-02-11T03:20:29;101876.19;;;3.26;100.00
66560;BME280;53413;49.878;8.142;2023-02-11T03:23:02;101866.78;;;3.31;100.00
66560;BME280;53413;49.878;8.142;2023-02-11T03:25:34;101865.06;;;3.30;100.00
66560;BME280;53413;49.878;8.142;2023-02-11T03:28:08;101873.69;;;3.31;100.00
66560;BME280;53413;49.878;8.142;2023-02-11T03:30:46;101881.50;;;3.32;100.00
66560;BME280;53413;49.878;8.142;2023-02-11T03:33:19;101875.53;;;3.35;100.00
66560;BME280;53413;49.878;8.142;2023-02-11T03:35:54;101864.25;;;3.34;100.00
66560;BME280;53413;49.878;8.142;2023-02-11T03:38:25;101867.75;;;3.35;100.00
66560;BME280;53413;49.878;8.142;2023-02-11T03:40:54;101878.06;;;3.33;100.00
66560;BME280;53413;49.878;8.142;2023-02-11T03:43:28;101878.03;;;3.32;100.00
66560;BME280;53413;49.878;8.142;2023-02-11T03:45:55;101874.44;;;3.27;100.00
66560;BME280;53413;49.878;8.142;2023-02-11T03:48:30;101867.47;;;3.22;100.00
66560;BME280;53413;49.878;8.142;2023-02-11T03:50:58;101856.19;;;3.20;100.00
66560;BME280;53413;49.878;8.142;2023-02-11T03:53:25;101850.88;;;3.14;100.00
66560;BME280;53413;49.878;8.142;2023-02-11T03:55:53;101852.44;;;3.07;100.00
66560;BME280;53413;49.878;8.142;2023-02-11T03:58:19;101844.47;;;2.98;100.00
66560;BME280;53413;49.878;8.142;2023-02-11T04:00:45;101837.44;;;2.92;100.00
66560;BME280;53413;49.878;8.142;2023-02-11T04:03:11;101830.41;;;2.87;100.00
66560;BME280;53413;49.878;8.142;2023-02-11T04:05:37;101812.06;;;2.77;100.00
66560;BME280;53413;49.878;8.142;2023-02-11T04:08:03;101798.94;;;2.68;100.00
66560;BME280;53413;49.878;8.142;2023-02-11T04:10:29;101793.50;;;2.59;100.00
66560;BME280;53413;49.878;8.142;2023-02-11T04:12:55;101781.19;;;2.49;100.00
66560;BME280;53413;49.878;8.142;2023-02-11T04:15:20;101787.09;;;2.41;100.00
66560;BME280;53413;49.878;8.142;2023-02-11T04:17:46;101786.88;;;2.34;100.00
66560;BME280;53413;49.878;8.142;2023-02-11T04:20:11;101778.94;;;2.26;100.00
66560;BME280;53413;49.878;8.142;2023-02-11T04:22:37;101766.69;;;2.19;100.00
66560;BME280;53413;49.878;8.142;2023-02-11T04:25:04;101764.94;;;2.16;100.00
66560;BME280;53413;49.878;8.142;2023-02-11T04:27:30;101774.25;;;2.11;100.00
66560;BME280;53413;49.878;8.142;2023-02-11T04:29:55;101784.41;;;2.03;100.00
66560;BME280;53413;49.878;8.142;2023-02-11T04:32:21;101799.69;;;1.94;100.00
66560;BME280;53413;49.878;8.142;2023-02-11T04:34:46;101809.03;;;1.89;100.00
66560;BME280;53413;49.878;8.142;2023-02-11T04:37:12;101816.97;;;1.95;100.00
66560;BME280;53413;49.878;8.142;2023-02-11T04:39:37;101812.94;;;2.06;100.00
66560;BME280;53413;49.878;8.142;2023-02-11T04:42:03;101826.19;;;2.19;100.00
66560;BME280;53413;49.878;8.142;2023-02-11T04:44:28;101831.59;;;2.28;100.00
66560;BME280;53413;49.878;8.142;2023-02-11T04:46:54;101835.22;;;2.35;100.00
66560;BME280;53413;49.878;8.142;2023-02-11T04:49:19;101827.63;;;2.42;100.00
66560;BME280;53413;49.878;8.142;2023-02-11T04:51:45;101838.19;;;2.50;100.00
66560;BME280;53413;49.878;8.142;2023-02-11T04:54:10;101836.63;;;2.57;100.00
66560;BME280;53413;49.878;8.142;2023-02-11T04:56:36;101836.75;;;2.63;100.00
66560;BME280;53413;49.878;8.142;2023-02-11T04:59:01;101835.91;;;2.64;100.00
66560;BME280;53413;49.878;8.142;2023-02-11T05:01:27;101844.72;;;2.72;100.00
66560;BME280;53413;49.878;8.142;2023-02-11T05:03:52;101842.31;;;2.79;100.00
66560;BME280;53413;49.878;8.142;2023-02-11T05:06:17;101846.69;;;2.81;100.00
66560;BME280;53413;49.878;8.142;2023-02-11T05:08:43;101831.16;;;2.83;100.00
66560;BME280;53413;49.878;8.142;2023-02-11T05:11:15;101826.13;;;2.87;100.00
66560;BME280;53413;49.878;8.142;2023-02-11T05:13:41;101828.75;;;2.90;100.00
66560;BME280;53413;49.878;8.142;2023-02-11T05:16:06;101813.19;;;2.89;100.00
66560;BME280;53413;49.878;8.142;2023-02-11T05:18:31;101819.22;;;2.88;100.00
66560;BME280;53413;49.878;8.142;2023-02-11T05:20:57;101822.63;;;2.85;100.00
66560;BME280;53413;49.878;8.142;2023-02-11T05:23:22;101814.84;;;2.85;100.00
66560;BME280;53413;49.878;8.142;2023-02-11T05:25:47;101807.84;;;2.81;100.00
66560;BME280;53413;49.878;8.142;2023-02-11T05:28:13;101799.13;;;2.77;100.00
66560;BME280;53413;49.878;8.142;2023-02-11T05:30:38;101788.63;;;2.71;100.00
66560;BME280;53413;49.878;8.142;2023-02-11T05:33:03;101782.47;;;2.66;100.00
66560;BME280;53413;49.878;8.142;2023-02-11T05:35:29;101776.31;;;2.61;100.00
66560;BME280;53413;49.878;8.142;2023-02-11T05:37:54;101777.84;;;2.53;100.00
66560;BME280;53413;49.878;8.142;2023-02-11T05:40:19;101786.31;;;2.45;100.00
66560;BME280;53413;49.878;8.142;2023-02-11T05:42:45;101791.41;;;2.42;100.00
66560;BME280;53413;49.878;8.142;2023-02-11T05:45:10;101791.31;;;2.38;100.00
66560;BME280;53413;49.878;8.142;2023-02-11T05:47:35;101794.63;;;2.32;100.00
66560;BME280;53413;49.878;8.142;2023-02-11T05:50:01;101791.13;;;2.30;100.00
66560;BME280;53413;49.878;8.142;2023-02-11T05:52:26;101797.00;;;2.24;100.00
66560;BME280;53413;49.878;8.142;2023-02-11T05:54:51;101799.50;;;2.20;100.00
66560;BME280;53413;49.878;8.142;2023-02-11T05:57:17;101799.31;;;2.13;100.00
66560;BME280;53413;49.878;8.142;2023-02-11T05:59:43;101811.19;;;2.05;100.00
66560;BME280;53413;49.878;8.142;2023-02-11T06:02:09;101816.28;;;2.02;100.00
66560;BME280;53413;49.878;8.142;2023-02-11T06:04:35;101812.72;;;1.97;100.00
66560;BME280;53413;49.878;8.142;2023-02-11T06:07:00;101815.91;;;1.88;100.00
66560;BME280;53413;49.878;8.142;2023-02-11T06:09:26;101818.16;;;1.76;100.00
66560;BME280;53413;49.878;8.142;2023-02-11T06:11:51;101814.41;;;1.64;100.00
66560;BME280;53413;49.878;8.142;2023-02-11T06:14:17;101811.72;;;1.60;100.00
66560;BME280;53413;49.878;8.142;2023-02-11T06:16:43;101829.72;;;1.58;100.00
66560;BME280;53413;49.878;8.142;2023-02-11T06:19:08;101824.69;;;1.63;100.00
66560;BME280;53413;49.878;8.142;2023-02-11T06:21:33;101824.84;;;1.67;100.00
66560;BME280;53413;49.878;8.142;2023-02-11T06:23:59;101819.75;;;1.71;100.00
66560;BME280;53413;49.878;8.142;2023-02-11T06:26:24;101819.81;;;1.72;100.00
66560;BME280;53413;49.878;8.142;2023-02-11T06:28:50;101823.31;;;1.74;100.00
66560;BME280;53413;49.878;8.142;2023-02-11T06:31:15;101832.72;;;1.72;100.00
66560;BME280;53413;49.878;8.142;2023-02-11T06:33:41;101829.31;;;1.73;100.00
66560;BME280;53413;49.878;8.142;2023-02-11T06:36:25;101837.13;;;1.76;100.00
66560;BME280;53413;49.878;8.142;2023-02-11T06:38:50;101840.72;;;1.81;100.00
66560;BME280;53413;49.878;8.142;2023-02-11T06:41:17;101838.38;;;1.91;100.00
66560;BME280;53413;49.878;8.142;2023-02-11T06:43:44;101834.16;;;1.94;100.00
66560;BME280;53413;49.878;8.142;2023-02-11T06:46:09;101843.72;;;1.97;100.00
66560;BME280;53413;49.878;8.142;2023-02-11T06:48:35;101842.03;;;1.99;100.00
66560;BME280;53413;49.878;8.142;2023-02-11T06:51:02;101842.09;;;2.00;100.00
66560;BME280;53413;49.878;8.142;2023-02-11T06:53:29;101848.22;;;2.04;100.00
66560;BME280;53413;49.878;8.142;2023-02-11T06:55:55;101845.63;;;2.04;100.00
66560;BME280;53413;49.878;8.142;2023-02-11T06:58:20;101845.72;;;2.07;100.00
66560;BME280;53413;49.878;8.142;2023-02-11T07:00:45;101846.78;;;2.15;100.00
66560;BME280;53413;49.878;8.142;2023-02-11T07:03:11;101847.81;;;2.21;100.00
66560;BME280;53413;49.878;8.142;2023-02-11T07:05:36;101841.84;;;2.25;100.00
66560;BME280;53413;49.878;8.142;2023-02-11T07:08:03;101837.47;;;2.21;100.00
66560;BME280;53413;49.878;8.142;2023-02-11T07:10:28;101841.72;;;2.19;100.00
66560;BME280;53413;49.878;8.142;2023-02-11T07:12:54;101834.75;;;2.16;100.00
66560;BME280;53413;49.878;8.142;2023-02-11T07:15:19;101828.78;;;2.19;100.00
66560;BME280;53413;49.878;8.142;2023-02-11T07:17:44;101822.88;;;2.24;100.00
66560;BME280;53413;49.878;8.142;2023-02-11T07:20:10;101827.44;;;2.35;100.00
66560;BME280;53413;49.878;8.142;2023-02-11T07:22:36;101827.75;;;2.47;100.00
66560;BME280;53413;49.878;8.142;2023-02-11T07:25:02;101823.72;;;2.58;100.00
66560;BME280;53413;49.878;8.142;2023-02-11T07:27:28;101825.59;;;2.66;100.00
66560;BME280;53413;49.878;8.142;2023-02-11T07:29:53;101822.50;;;2.81;100.00
66560;BME280;53413;49.878;8.142;2023-02-11T07:32:19;101826.34;;;2.98;100.00
66560;BME280;53413;49.878;8.142;2023-02-11T07:34:44;101832.16;;;3.28;100.00
66560;BME280;53413;49.878;8.142;2023-02-11T07:37:09;101837.94;;;3.57;100.00
66560;BME280;53413;49.878;8.142;2023-02-11T07:39:35;101825.53;;;3.87;100.00
66560;BME280;53413;49.878;8.142;2023-02-11T07:42:00;101826.75;;;4.04;100.00
66560;BME280;53413;49.878;8.142;2023-02-11T07:44:25;101829.72;;;4.27;100.00
66560;BME280;53413;49.878;8.142;2023-02-11T07:46:51;101830.97;;;4.51;100.00
66560;BME280;53413;49.878;8.142;2023-02-11T07:49:17;101832.19;;;4.72;100.00
66560;BME280;53413;49.878;8.142;2023-02-11T07:51:42;101836.47;;;4.68;100.00
66560;BME280;53413;49.878;8.142;2023-02-11T07:54:09;101842.59;;;4.73;100.00
66560;BME280;53413;49.878;8.142;2023-02-11T07:56:35;101849.59;;;4.79;100.00
66560;BME280;53413;49.878;8.142;2023-02-11T07:59:02;101850.81;;;5.03;100.00
66560;BME280;53413;49.878;8.142;2023-02-11T08:01:27;101853.81;;;5.31;100.00
66560;BME280;53413;49.878;8.142;2023-02-11T08:03:54;101847.28;;;5.65;100.00
66560;BME280;53413;49.878;8.142;2023-02-11T08:06:23;101849.03;;;6.51;100.00
66560;BME280;53413;49.878;8.142;2023-02-11T08:08:49;101846.78;;;6.98;100.00
66560;BME280;53413;49.878;8.142;2023-02-11T08:11:18;101853.72;;;6.96;100.00
66560;BME280;53413;49.878;8.142;2023-02-11T08:13:44;101850.31;;;7.07;100.00
66560;BME280;53413;49.878;8.142;2023-02-11T08:16:26;101842.41;;;6.89;100.00
66560;BME280;53413;49.878;8.142;2023-02-11T08:18:52;101837.25;;;7.04;100.00
66560;BME280;53413;49.878;8.142;2023-02-11T08:21:20;101826.94;;;7.21;100.00
66560;BME280;53413;49.878;8.142;2023-02-11T08:23:45;101841.63;;;7.08;100.00
66560;BME280;53413;49.878;8.142;2023-02-11T08:26:13;101830.41;;;7.22;100.00
66560;BME280;53413;49.878;8.142;2023-02-11T08:28:40;101829.84;;;8.44;100.00
66560;BME280;53413;49.878;8.142;2023-02-11T08:31:21;101825.19;;;9.68;96.23
66560;BME280;53413;49.878;8.142;2023-02-11T08:33:47;101830.91;;;10.26;92.51
66560;BME280;53413;49.878;8.142;2023-02-11T08:36:19;101829.03;;;12.01;84.93
66560;BME280;53413;49.878;8.142;2023-02-11T08:38:45;101835.16;;;13.90;75.46
66560;BME280;53413;49.878;8.142;2023-02-11T08:41:11;101837.47;;;15.41;67.37
66560;BME280;53413;49.878;8.142;2023-02-11T08:43:39;101839.69;;;16.92;59.18
66560;BME280;53413;49.878;8.142;2023-02-11T08:46:06;101841.56;;;18.09;55.96
66560;BME280;53413;49.878;8.142;2023-02-11T08:48:32;101849.59;;;18.92;52.91
66560;BME280;53413;49.878;8.142;2023-02-11T08:50:57;101845.41;;;19.07;49.53
66560;BME280;53413;49.878;8.142;2023-02-11T08:53:23;101846.38;;;18.63;50.56
66560;BME280;53413;49.878;8.142;2023-02-11T08:55:49;101846.06;;;16.61;52.33
66560;BME280;53413;49.878;8.142;2023-02-11T08:58:15;101857.53;;;14.84;54.79
66560;BME280;53413;49.878;8.142;2023-02-11T09:00:40;101856.38;;;14.59;57.13
66560;BME280;53413;49.878;8.142;2023-02-11T09:03:08;101857.88;;;14.71;56.99
66560;BME280;53413;49.878;8.142;2023-02-11T09:05:33;101852.44;;;15.70;54.87
66560;BME280;53413;49.878;8.142;2023-02-11T09:07:58;101842.59;;;16.59;52.52
66560;BME280;53413;49.878;8.142;2023-02-11T09:10:24;101853.50;;;17.02;51.03
66560;BME280;53413;49.878;8.142;2023-02-11T09:12:49;101857.03;;;16.76;50.98
66560;BME280;53413;49.878;8.142;2023-02-11T09:15:14;101864.44;;;16.66;51.52
66560;BME280;53413;49.878;8.142;2023-02-11T09:17:39;101861.53;;;16.47;51.95
66560;BME280;53413;49.878;8.142;2023-02-11T09:20:05;101858.47;;;16.59;51.79
66560;BME280;53413;49.878;8.142;2023-02-11T09:22:31;101864.28;;;16.44;50.79
66560;BME280;53413;49.878;8.142;2023-02-11T09:24:56;101858.28;;;16.12;51.73
66560;BME280;53413;49.878;8.142;2023-02-11T09:27:21;101866.16;;;16.13;52.35
66560;BME280;53413;49.878;8.142;2023-02-11T09:29:47;101868.44;;;16.24;51.67
66560;BME280;53413;49.878;8.142;2023-02-11T09:32:12;101871.28;;;16.46;51.53
66560;BME280;53413;49.878;8.142;2023-02-11T09:34:37;101864.44;;;16.66;51.45
66560;BME280;53413;49.878;8.142;2023-02-11T09:37:03;101868.75;;;16.69;50.88
66560;BME280;53413;49.878;8.142;2023-02-11T09:39:28;101885.78;;;16.60;50.63
66560;BME280;53413;49.878;8.142;2023-02-11T09:42:19;101885.34;;;15.60;51.87
66560;BME280;53413;49.878;8.142;2023-02-11T09:44:54;101889.69;;;14.26;54.72
66560;BME280;53413;49.878;8.142;2023-02-11T09:50:09;101908.16;;;12.41;59.41
66560;BME280;53413;49.878;8.142;2023-02-11T09:52:40;101918.94;;;11.52;61.79
66560;BME280;53413;49.878;8.142;2023-02-11T09:55:24;101913.41;;;10.94;63.93
66560;BME280;53413;49.878;8.142;2023-02-11T09:57:51;101923.28;;;10.64;66.06
66560;BME280;53413;49.878;8.142;2023-02-11T10:00:20;101912.97;;;10.41;66.96
66560;BME280;53413;49.878;8.142;2023-02-11T10:03:08;101925.41;;;10.00;69.56
66560;BME280;53413;49.878;8.142;2023-02-11T10:06:23;101927.13;;;10.02;69.81
66560;BME280;53413;49.878;8.142;2023-02-11T10:09:15;101927.88;;;10.28;69.87
66560;BME280;53413;49.878;8.142;2023-02-11T10:25:19;101905.84;;;10.60;70.13
66560;BME280;53413;49.878;8.142;2023-02-11T10:27:46;101917.09;;;10.74;70.72
66560;BME280;53413;49.878;8.142;2023-02-11T10:30:19;101916.34;;;10.55;70.76
66560;BME280;53413;49.878;8.142;2023-02-11T10:35:23;101919.13;;;10.24;72.36
66560;BME280;53413;49.878;8.142;2023-02-11T10:37:50;101918.28;;;10.24;72.96
66560;BME280;53413;49.878;8.142;2023-02-11T10:40:23;101912.16;;;10.25;72.27
66560;BME280;53413;49.878;8.142;2023-02-11T10:42:51;101920.16;;;10.03;73.40
66560;BME280;53413;49.878;8.142;2023-02-11T10:45:33;101918.50;;;9.80;74.03
66560;BME280;53413;49.878;8.142;2023-02-11T10:48:03;101911.59;;;9.67;74.52
66560;BME280;53413;49.878;8.142;2023-02-11T10:50:32;101911.56;;;9.72;75.34
66560;BME280;53413;49.878;8.142;2023-02-11T10:53:19;101918.50;;;9.79;75.28
66560;BME280;53413;49.878;8.142;2023-02-11T10:55:55;101919.44;;;9.64;76.46
66560;BME280;53413;49.878;8.142;2023-02-11T10:58:27;101911.59;;;9.61;77.15
66560;BME280;53413;49.878;8.142;2023-02-11T11:00:54;101913.34;;;9.51;78.14
66560;BME280;53413;49.878;8.142;2023-02-11T11:03:34;101909.81;;;9.72;78.26
66560;BME280;53413;49.878;8.142;2023-02-11T11:06:03;101900.16;;;9.80;78.27
66560;BME280;53413;49.878;8.142;2023-02-11T11:08:46;101897.53;;;9.80;79.16
66560;BME280;53413;49.878;8.142;2023-02-11T11:11:19;101906.34;;;9.61;80.06
66560;BME280;53413;49.878;8.142;2023-02-11T11:14:00;101899.44;;;9.43;81.06
66560;BME280;53413;49.878;8.142;2023-02-11T11:16:34;101904.66;;;9.46;81.81
66560;BME280;53413;49.878;8.142;2023-02-11T11:19:13;101909.84;;;9.57;82.29
66560;BME280;53413;49.878;8.142;2023-02-11T11:22:05;101901.06;;;9.78;82.77
66560;BME280;53413;49.878;8.142;2023-02-11T11:24:42;101894.03;;;9.81;82.08
66560;BME280;53413;49.878;8.142;2023-02-11T11:27:16;101896.66;;;9.81;82.18
66560;BME280;53413;49.878;8.142;2023-02-11T11:29:45;101887.84;;;9.99;81.79
66560;BME280;53413;49.878;8.142;2023-02-11T11:34:48;101897.31;;;10.27;80.88
66560;BME280;53413;49.878;8.142;2023-02-11T11:37:29;101890.28;;;10.32;80.76
66560;BME280;53413;49.878;8.142;2023-02-11T11:39:59;101889.41;;;10.30;81.45
66560;BME280;53413;49.878;8.142;2023-02-11T11:42:31;101897.25;;;10.30;81.71
66560;BME280;53413;49.878;8.142;2023-02-11T11:45:00;101884.25;;;10.16;81.85
66560;BME280;53413;49.878;8.142;2023-02-11T11:47:30;101889.63;;;9.96;82.60
66560;BME280;53413;49.878;8.142;2023-02-11T11:50:13;101890.59;;;9.73;83.71
66560;BME280;53413;49.878;8.142;2023-02-11T11:52:56;101893.34;;;9.50;84.43
66560;BME280;53413;49.878;8.142;2023-02-11T11:55:35;101879.31;;;9.59;85.68
66560;BME280;53413;49.878;8.142;2023-02-11T11:58:03;101885.31;;;9.84;85.69
66560;BME280;53413;49.878;8.142;2023-02-11T12:25:45;101891.63;;;9.30;90.49
66560;BME280;53413;49.878;8.142;2023-02-11T12:42:45;101890.75;;;9.28;93.46
66560;BME280;53413;49.878;8.142;2023-02-11T12:46:28;101886.44;;;9.24;94.23
66560;BME280;53413;49.878;8.142;2023-02-11T12:51:48;101884.59;;;9.52;93.76
66560;BME280;53413;49.878;8.142;2023-02-11T12:54:27;101883.63;;;9.72;93.61
66560;BME280;53413;49.878;8.142;2023-02-11T12:57:14;101868.63;;;10.07;92.16
66560;BME280;53413;49.878;8.142;2023-02-11T13:00:21;101872.78;;;10.40;90.26
66560;BME280;53413;49.878;8.142;2023-02-11T13:03:06;101858.63;;;10.63;89.33
66560;BME280;53413;49.878;8.142;2023-02-11T13:05:39;101855.81;;;10.82;88.80
66560;BME280;53413;49.878;8.142;2023-02-11T13:08:15;101852.88;;;11.13;87.51
66560;BME280;53413;49.878;8.142;2023-02-11T13:10:45;101855.41;;;11.22;86.27
66560;BME280;53413;49.878;8.142;2023-02-11T13:15:57;101853.72;;;11.18;86.53
66560;BME280;53413;49.878;8.142;2023-02-11T13:26:24;101836.50;;;10.93;88.48
66560;BME280;53413;49.878;8.142;2023-02-11T13:31:19;101829.56;;;10.88;88.95
66560;BME280;53413;49.878;8.142;2023-02-11T13:33:44;101834.06;;;10.73;89.12
66560;BME280;53413;49.878;8.142;2023-02-11T13:36:16;101832.22;;;10.82;89.57
66560;BME280;53413;49.878;8.142;2023-02-11T13:38:57;101827.88;;;10.79;89.45
66560;BME280;53413;49.878;8.142;2023-02-11T13:41:27;101822.72;;;10.68;89.67
66560;BME280;53413;49.878;8.142;2023-02-11T13:44:25;101823.72;;;10.58;90.10
66560;BME280;53413;49.878;8.142;2023-02-11T13:47:00;101821.16;;;10.50;90.91
66560;BME280;53413;49.878;8.142;2023-02-11T13:49:30;101824.63;;;10.52;90.84
66560;BME280;53413;49.878;8.142;2023-02-11T13:51:56;101821.06;;;10.59;91.58
66560;BME280;53413;49.878;8.142;2023-02-11T13:54:27;101827.13;;;10.66;91.39
66560;BME280;53413;49.878;8.142;2023-02-11T13:59:51;101830.72;;;10.53;91.45
66560;BME280;53413;49.878;8.142;2023-02-11T14:05:31;101824.81;;;10.24;91.51
66560;BME280;53413;49.878;8.142;2023-02-11T14:08:17;101821.47;;;10.07;91.83
66560;BME280;53413;49.878;8.142;2023-02-11T14:11:07;101831.94;;;10.05;93.22
66560;BME280;53413;49.878;8.142;2023-02-11T14:16:15;101830.28;;;9.96;94.86
66560;BME280;53413;49.878;8.142;2023-02-11T14:23:39;101824.16;;;9.93;95.39
66560;BME280;53413;49.878;8.142;2023-02-11T14:26:30;101818.09;;;9.88;96.30
66560;BME280;53413;49.878;8.142;2023-02-11T14:34:52;101824.31;;;9.68;96.74
66560;BME280;53413;49.878;8.142;2023-02-11T14:37:40;101833.97;;;9.61;97.67
66560;BME280;53413;49.878;8.142;2023-02-11T14:40:28;101829.59;;;9.60;98.32
66560;BME280;53413;49.878;8.142;2023-02-11T14:43:02;101838.34;;;9.54;98.39
66560;BME280;53413;49.878;8.142;2023-02-11T14:45:30;101834.00;;;9.49;99.91
66560;BME280;53413;49.878;8.142;2023-02-11T14:48:14;101840.09;;;9.46;100.00
66560;BME280;53413;49.878;8.142;2023-02-11T14:53:47;101841.03;;;9.37;100.00
66560;BME280;53413;49.878;8.142;2023-02-11T14:56:22;101836.69;;;9.32;100.00
66560;BME280;53413;49.878;8.142;2023-02-11T14:58:53;101847.13;;;9.35;100.00
66560;BME280;53413;49.878;8.142;2023-02-11T15:03:51;101848.03;;;9.29;100.00
66560;BME280;53413;49.878;8.142;2023-02-11T15:06:24;101866.34;;;9.21;100.00
66560;BME280;53413;49.878;8.142;2023-02-11T15:11:26;101859.44;;;9.08;100.00
66560;BME280;53413;49.878;8.142;2023-02-11T15:14:06;101859.41;;;9.03;100.00
66560;BME280;53413;49.878;8.142;2023-02-11T15:16:33;101867.25;;;9.03;100.00
66560;BME280;53413;49.878;8.142;2023-02-11T15:19:05;101862.91;;;8.98;100.00
66560;BME280;53413;49.878;8.142;2023-02-11T15:21:33;101871.66;;;8.90;100.00